Time,TemperatureF,DewpointF,PressureIn,WindDirection,WindDirectionDegrees,WindSpeedMPH,WindSpeedGustMPH,Humidity,HourlyPrecipIn,Conditions,Clouds,dailyrainin,SoftwareType,DateUTC
2013-03-13 00:08:00,52.7,51.3,-100.00,SSW,202,2.7,-999.0,95,-99.99,,,0.00,Acu-Link.com,2013-03-13 04:08:00,
2013-03-13 00:23:00,52.5,51.1,-100.00,SSW,202,3.8,-999.0,95,-99.99,,,0.00,Acu-Link.com,2013-03-13 04:23:00,
2013-03-13 00:38:00,52.5,51.4,-100.00,SSW,202,4.3,-999.0,96,-99.99,,,0.00,Acu-Link.com,2013-03-13 04:38:00,
2013-03-13 00:54:00,52.5,51.4,-100.00,West,270,7.8,-999.0,96,-99.99,,,0.00,Acu-Link.com,2013-03-13 04:54:00,
2013-03-13 01:09:00,52.3,50.9,-100.00,NW,315,5.8,-999.0,95,-99.99,,,0.00,Acu-Link.com,2013-03-13 05:09:00,
2013-03-13 01:24:00,51.3,48.4,-100.00,West,270,10.3,-999.0,90,-99.99,,,0.00,Acu-Link.com,2013-03-13 05:24:00,
2013-03-13 01:40:00,49.5,46.4,-100.00,West,270,9.8,-999.0,89,-99.99,,,0.00,Acu-Link.com,2013-03-13 05:40:00,
2013-03-13 01:55:00,48.2,44.8,-100.00,NW,315,14.5,-999.0,88,-99.99,,,0.00,Acu-Link.com,2013-03-13 05:55:00,
2013-03-13 02:10:00,47.1,43.2,-100.00,NW,315,6.3,-999.0,86,-99.99,,,0.00,Acu-Link.com,2013-03-13 06:10:00,
2013-03-13 02:26:00,46.4,42.1,-100.00,WNW,292,16.1,-999.0,85,-99.99,,,0.00,Acu-Link.com,2013-03-13 06:26:00,
2013-03-13 02:56:00,45.7,41.4,-100.00,WNW,292,6.7,-999.0,85,-99.99,,,0.00,Acu-Link.com,2013-03-13 06:56:00,
2013-03-13 03:11:00,45.3,41.1,-100.00,North,0,7.4,-999.0,85,-99.99,,,0.00,Acu-Link.com,2013-03-13 07:11:00,
2013-03-13 09:41:00,43.3,32.8,-100.00,WNW,292,5.8,-999.0,66,-99.99,,,0.00,Acu-Link.com,2013-03-13 13:41:00,
2013-03-13 09:56:00,44.2,32.8,-100.00,WNW,292,4.7,-999.0,64,-99.99,,,0.00,Acu-Link.com,2013-03-13 13:56:00,
2013-03-13 10:11:00,44.6,32.8,-100.00,NNW,337,4.3,-999.0,63,-99.99,,,0.00,Acu-Link.com,2013-03-13 14:11:00,
2013-03-13 10:26:00,45.1,32.5,-100.00,WNW,292,4.3,-999.0,61,-99.99,,,0.00,Acu-Link.com,2013-03-13 14:26:00,
2013-03-13 10:42:00,45.3,32.3,-100.00,NNW,337,6.7,-999.0,60,-99.99,,,0.00,Acu-Link.com,2013-03-13 14:42:00,
2013-03-13 10:57:00,47.1,32.7,-100.00,South,180,4.3,-999.0,57,-99.99,,,0.00,Acu-Link.com,2013-03-13 14:57:00,
2013-03-13 11:12:00,47.8,32.5,-100.00,WNW,292,6.7,-999.0,55,-99.99,,,0.00,Acu-Link.com,2013-03-13 15:12:00,
2013-03-13 11:28:00,48.7,32.8,-100.00,West,270,9.4,-999.0,54,-99.99,,,0.00,Acu-Link.com,2013-03-13 15:28:00,
2013-03-13 11:43:00,49.3,32.9,-100.00,NW,315,8.9,-999.0,53,-99.99,,,0.00,Acu-Link.com,2013-03-13 15:43:00,
2013-03-13 11:58:00,48.6,32.7,-100.00,WNW,292,6.3,-999.0,54,-99.99,,,0.00,Acu-Link.com,2013-03-13 15:58:00,
2013-03-13 12:13:00,48.6,32.7,-100.00,NW,315,8.9,-999.0,54,-99.99,,,0.00,Acu-Link.com,2013-03-13 16:13:00,
2013-03-13 12:29:00,50.7,33.3,-100.00,West,270,17.0,-999.0,51,-99.99,,,0.00,Acu-Link.com,2013-03-13 16:29:00,
2013-03-13 12:44:00,50.7,33.3,-100.00,West,270,6.7,-999.0,51,-99.99,,,0.00,Acu-Link.com,2013-03-13 16:44:00,
2013-03-13 12:59:00,51.3,33.3,-100.00,NW,315,4.7,-999.0,50,-99.99,,,0.00,Acu-Link.com,2013-03-13 16:59:00,
2013-03-13 13:15:00,51.3,32.2,-100.00,WNW,292,11.4,-999.0,48,-99.99,,,0.00,Acu-Link.com,2013-03-13 17:15:00,
2013-03-13 13:30:00,51.8,32.2,-100.00,WNW,292,12.5,-999.0,47,-99.99,,,0.00,Acu-Link.com,2013-03-13 17:30:00,
2013-03-13 13:45:00,52.2,32.5,-100.00,SSW,202,5.8,-999.0,47,-99.99,,,0.00,Acu-Link.com,2013-03-13 17:45:00,
2013-03-13 14:00:00,52.2,31.5,-100.00,West,270,6.7,-999.0,45,-99.99,,,0.00,Acu-Link.com,2013-03-13 18:00:00,
2013-03-13 14:15:00,52.5,30.7,-100.00,WNW,292,5.8,-999.0,43,-99.99,,,0.00,Acu-Link.com,2013-03-13 18:15:00,
2013-03-13 14:31:00,53.2,30.7,-100.00,NNW,337,6.3,-999.0,42,-99.99,,,0.00,Acu-Link.com,2013-03-13 18:31:00,
2013-03-13 14:46:00,53.6,30.5,-100.00,WNW,292,11.9,-999.0,41,-99.99,,,0.00,Acu-Link.com,2013-03-13 18:46:00,
2013-03-13 15:17:00,52.2,28.0,-100.00,West,270,14.5,-999.0,39,-99.99,,,0.00,Acu-Link.com,2013-03-13 19:17:00,
2013-03-13 15:32:00,53.2,28.9,-100.00,West,270,8.9,-999.0,39,-99.99,,,0.00,Acu-Link.com,2013-03-13 19:32:00,
2013-03-13 15:47:00,52.5,26.3,-100.00,WNW,292,7.8,-999.0,36,-99.99,,,0.00,Acu-Link.com,2013-03-13 19:47:00,
2013-03-13 16:02:00,52.7,25.8,-100.00,West,270,9.4,-999.0,35,-99.99,,,0.00,Acu-Link.com,2013-03-13 20:02:00,
2013-03-13 16:18:00,53.2,26.3,-100.00,NNW,337,6.3,-999.0,35,-99.99,,,0.00,Acu-Link.com,2013-03-13 20:18:00,
2013-03-13 16:33:00,53.2,24.9,-100.00,NNW,337,5.1,-999.0,33,-99.99,,,0.00,Acu-Link.com,2013-03-13 20:33:00,
2013-03-13 16:48:00,53.2,24.2,-100.00,West,270,6.3,-999.0,32,-99.99,,,0.00,Acu-Link.com,2013-03-13 20:48:00,
2013-03-13 17:04:00,53.2,23.4,-100.00,WNW,292,7.8,-999.0,31,-99.99,,,0.00,Acu-Link.com,2013-03-13 21:04:00,
2013-03-13 17:19:00,51.8,22.1,-100.00,NNW,337,10.3,-999.0,31,-99.99,,,0.00,Acu-Link.com,2013-03-13 21:19:00,
2013-03-13 17:34:00,52.2,22.5,-100.00,WSW,247,8.9,-999.0,31,-99.99,,,0.00,Acu-Link.com,2013-03-13 21:34:00,
2013-03-13 17:49:00,50.7,21.2,-100.00,West,270,8.9,-999.0,31,-99.99,,,0.00,Acu-Link.com,2013-03-13 21:49:00,
2013-03-13 18:05:00,49.8,21.2,-100.00,NNW,337,11.4,-999.0,32,-99.99,,,0.00,Acu-Link.com,2013-03-13 22:05:00,
2013-03-13 18:20:00,49.1,21.3,-100.00,West,270,9.8,-999.0,33,-99.99,,,0.00,Acu-Link.com,2013-03-13 22:20:00,
2013-03-13 18:35:00,48.6,21.5,-100.00,North,0,14.1,-999.0,34,-99.99,,,0.00,Acu-Link.com,2013-03-13 22:35:00,
2013-03-13 18:51:00,47.1,20.9,-100.00,West,270,7.8,-999.0,35,-99.99,,,0.00,Acu-Link.com,2013-03-13 22:51:00,
2013-03-13 19:06:00,46.2,20.8,-100.00,NW,315,5.8,-999.0,36,-99.99,,,0.00,Acu-Link.com,2013-03-13 23:06:00,
2013-03-13 19:21:00,45.7,20.9,-100.00,WNW,292,9.8,-999.0,37,-99.99,,,0.00,Acu-Link.com,2013-03-13 23:21:00,
2013-03-13 19:36:00,45.0,20.9,-100.00,West,270,6.7,-999.0,38,-99.99,,,0.00,Acu-Link.com,2013-03-13 23:36:00,
2013-03-13 19:52:00,44.6,20.6,-100.00,WNW,292,5.8,-999.0,38,-99.99,,,0.00,Acu-Link.com,2013-03-13 23:52:00,
2013-03-13 20:07:00,43.9,20.5,-100.00,WNW,292,6.7,-999.0,39,-99.99,,,0.00,Acu-Link.com,2013-03-14 00:07:00,
2013-03-13 20:22:00,43.5,20.8,-100.00,WNW,292,9.4,-999.0,40,-99.99,,,0.00,Acu-Link.com,2013-03-14 00:22:00,
2013-03-13 20:38:00,43.0,19.7,-100.00,NW,315,3.8,-999.0,39,-99.99,,,0.00,Acu-Link.com,2013-03-14 00:38:00,
2013-03-13 20:53:00,42.6,20.0,-100.00,WNW,292,5.1,-999.0,40,-99.99,,,0.00,Acu-Link.com,2013-03-14 00:53:00,
2013-03-13 21:08:00,42.1,20.7,-100.00,West,270,5.8,-999.0,42,-99.99,,,0.00,Acu-Link.com,2013-03-14 01:08:00,
2013-03-13 21:23:00,41.7,20.3,-100.00,West,270,2.7,-999.0,42,-99.99,,,0.00,Acu-Link.com,2013-03-14 01:23:00,
2013-03-13 21:39:00,41.4,20.6,-100.00,NW,315,6.3,-999.0,43,-99.99,,,0.00,Acu-Link.com,2013-03-14 01:39:00,
2013-03-13 21:54:00,41.2,20.4,-100.00,WNW,292,4.7,-999.0,43,-99.99,,,0.00,Acu-Link.com,2013-03-14 01:54:00,
2013-03-13 22:09:00,40.6,21.0,-100.00,WNW,292,3.1,-999.0,45,-99.99,,,0.00,Acu-Link.com,2013-03-14 02:09:00,
2013-03-13 22:25:00,40.3,20.7,-100.00,WNW,292,3.8,-999.0,45,-99.99,,,0.00,Acu-Link.com,2013-03-14 02:25:00,
2013-03-13 22:40:00,39.7,20.7,-100.00,WNW,292,4.7,-999.0,46,-99.99,,,0.00,Acu-Link.com,2013-03-14 02:40:00,
2013-03-13 22:55:00,39.6,21.0,-100.00,WNW,292,2.7,-999.0,47,-99.99,,,0.00,Acu-Link.com,2013-03-14 02:55:00,
2013-03-13 23:11:00,39.2,20.7,-100.00,West,270,3.8,-999.0,47,-99.99,,,0.00,Acu-Link.com,2013-03-14 03:11:00,
2013-03-13 23:26:00,38.8,20.8,-100.00,West,270,4.3,-999.0,48,-99.99,,,0.00,Acu-Link.com,2013-03-14 03:26:00,
2013-03-13 23:56:00,38.7,20.7,-100.00,West,270,4.3,-999.0,48,-99.99,,,0.00,Acu-Link.com,2013-03-14 03:56:00,